createdAt,value
2022-10-28T00:00:47.449Z,-11126.06
2022-10-28T00:03:56.749Z,-11116.25
2022-10-28T00:07:03.002Z,-11115.13
2022-10-28T00:10:10.291Z,-11130.13
2022-10-28T00:13:16.441Z,-11111.59
2022-10-28T00:16:25.381Z,-11120.31
2022-10-28T00:19:32.777Z,-11102.91
2022-10-28T00:22:39.051Z,-11112.88
2022-10-28T00:25:45.330Z,-11115.97
2022-10-28T00:28:53.507Z,-11119.75
2022-10-28T00:31:59.239Z,-11124.09
2022-10-28T00:35:08.144Z,-11122.00
2022-10-28T00:38:14.012Z,-11124.66
2022-10-28T00:41:24.492Z,-11093.50
2022-10-28T00:44:56.319Z,-11115.25
2022-10-28T00:48:04.403Z,-11119.31
2022-10-28T00:51:11.957Z,-11107.13
2022-10-28T00:54:19.710Z,-11106.56
2022-10-28T00:57:30.110Z,-11102.19
2022-10-28T01:00:36.499Z,-11109.91
2022-10-28T01:03:42.698Z,-11118.63
2022-10-28T01:06:50.425Z,-11118.06
2022-10-28T01:09:56.828Z,-11119.03
2022-10-28T01:13:12.812Z,-11089.69
2022-10-28T01:16:30.911Z,-11088.28
2022-10-28T01:20:02.589Z,-11088.44
2022-10-28T01:23:19.572Z,-11092.78
2022-10-28T01:26:42.102Z,-11102.19
2022-10-28T01:30:01.243Z,-11089.28
2022-10-28T01:33:15.706Z,-11068.78
2022-10-28T01:36:33.253Z,-11079.03
2022-10-28T01:39:49.652Z,-11077.19
2022-10-28T01:43:06.584Z,-11077.91
2022-10-28T01:46:18.463Z,-11073.28
2022-10-28T01:49:32.384Z,-11098.97
2022-10-28T01:52:41.765Z,-11108.09
2022-10-28T01:55:51.264Z,-11111.88
2022-10-28T01:59:00.350Z,-11103.31
2022-10-28T02:02:06.428Z,-11082.94
2022-10-28T02:05:38.811Z,-11103.59
2022-10-28T02:08:59.540Z,-11083.50
2022-10-28T02:12:30.911Z,-11098.41
2022-10-28T02:15:44.599Z,-11082.81
2022-10-28T02:19:00.617Z,-11075.66
2022-10-28T02:22:16.996Z,-11072.28
2022-10-28T02:25:27.120Z,-11065.28
2022-10-28T02:28:41.060Z,-11055.72
2022-10-28T02:31:51.847Z,-11058.25
2022-10-28T02:35:00.690Z,-11068.22
2022-10-28T02:38:12.843Z,-11081.00
2022-10-28T02:41:28.405Z,-11073.69
2022-10-28T02:44:36.730Z,-11084.06
2022-10-28T02:47:55.431Z,-11094.31
2022-10-28T02:51:07.306Z,-11091.09
2022-10-28T02:54:17.490Z,-11077.19
2022-10-28T02:57:26.672Z,-11092.66
2022-10-28T03:00:32.754Z,-11101.78
2022-10-28T03:03:39.018Z,-11062.88
2022-10-28T03:06:45.338Z,-11058.81
2022-10-28T03:09:53.125Z,-11055.03
2022-10-28T03:12:59.079Z,-11067.50
2022-10-28T03:16:05.868Z,-11070.59
2022-10-28T03:19:11.944Z,-11057.28
2022-10-28T03:22:18.142Z,-11046.75
2022-10-28T03:25:25.624Z,-11048.16
2022-10-28T03:28:31.602Z,-11054.03
2022-10-28T03:31:37.883Z,-11066.66
2022-10-28T03:34:44.186Z,-11061.91
2022-10-28T03:37:50.636Z,-11069.47
2022-10-28T03:40:58.498Z,-11080.16
2022-10-28T03:44:04.557Z,-11085.63
2022-10-28T03:47:10.914Z,-11084.34
2022-10-28T03:50:17.506Z,-11077.06
2022-10-28T03:53:27.599Z,-11073.97
2022-10-28T03:56:40.616Z,-11076.22
2022-10-28T03:59:46.747Z,-11065.84
2022-10-28T04:02:53.879Z,-11062.19
2022-10-28T04:06:00.346Z,-11051.09
2022-10-28T04:09:06.649Z,-11064.84
2022-10-28T04:12:14.433Z,-11077.63
2022-10-28T04:15:20.731Z,-11058.53
2022-10-28T04:18:27.061Z,-11063.31
2022-10-28T04:21:33.662Z,-11045.50
2022-10-28T04:24:39.955Z,-11066.38
2022-10-28T04:27:47.967Z,-11061.34
2022-10-28T04:30:54.328Z,-11070.19
2022-10-28T04:34:01.439Z,-11072.84
2022-10-28T04:37:07.841Z,-11068.06
2022-10-28T04:40:14.391Z,-11056.28
2022-10-28T04:43:22.067Z,-11052.78
2022-10-28T04:46:28.036Z,-11044.78
2022-10-28T04:49:36.652Z,-11058.53
2022-10-28T04:52:45.242Z,-11039.03
2022-10-28T04:55:51.454Z,-11043.09
2022-10-28T04:58:59.028Z,-11041.28
2022-10-28T05:02:05.213Z,-11030.06
2022-10-28T05:05:11.355Z,-11031.31
2022-10-28T05:08:17.212Z,-11039.44
2022-10-28T05:11:23.834Z,-11040.72
2022-10-28T05:14:31.606Z,-11042.53
2022-10-28T05:17:39.070Z,-11054.19
2022-10-28T05:20:45.172Z,-11066.66
2022-10-28T05:23:51.081Z,-11069.34
2022-10-28T05:26:57.541Z,-11048.28
2022-10-28T05:30:06.282Z,-11057.97
2022-10-28T05:33:12.984Z,-11069.47
2022-10-28T05:36:19.083Z,-11062.47
2022-10-28T05:39:25.370Z,-11082.13
2022-10-28T05:42:31.816Z,-11090.81
2022-10-28T05:45:39.491Z,-11109.50
2022-10-28T05:48:45.738Z,-11113.56
2022-10-28T05:51:52.034Z,-11122.84
2022-10-28T05:54:58.378Z,-11134.22
2022-10-28T05:58:04.583Z,-11129.59
2022-10-28T06:01:12.485Z,-11126.78
2022-10-28T06:04:18.553Z,-11131.25
2022-10-28T06:07:25.474Z,-11145.03
2022-10-28T06:10:31.440Z,-11156.84
2022-10-28T06:13:36.233Z,-11162.88
2022-10-28T06:16:43.842Z,-11163.88
2022-10-28T06:19:49.994Z,-11147.84
2022-10-28T06:22:56.449Z,-11140.13
2022-10-28T06:26:04.261Z,-11156.56
2022-10-28T06:29:10.934Z,-11161.63
2022-10-28T06:32:18.502Z,-11167.25
2022-10-28T06:35:24.758Z,-11168.22
2022-10-28T06:38:31.228Z,-11173.28
2022-10-28T06:41:37.491Z,-11183.41
2022-10-28T06:44:43.815Z,-11181.56
2022-10-28T06:47:56.666Z,-11180.88
2022-10-28T06:51:02.623Z,-11199.00
2022-10-28T06:54:09.120Z,-11200.41
2022-10-28T06:57:15.680Z,-11206.59
2022-10-28T07:00:22.292Z,-11208.72
2022-10-28T07:03:29.638Z,-11219.25
2022-10-28T07:06:35.624Z,-11226.28
2022-10-28T07:09:45.143Z,-11226.00
2022-10-28T07:12:53.802Z,-11225.16
2022-10-28T07:16:01.940Z,-11220.25
2022-10-28T07:19:09.330Z,-11242.75
2022-10-28T07:22:15.406Z,-11232.75
2022-10-28T07:25:21.683Z,-11245.56
2022-10-28T07:28:29.015Z,-11260.91
2022-10-28T07:31:35.440Z,-11255.97
2022-10-28T07:34:43.164Z,-11272.31
2022-10-28T07:37:48.915Z,-11272.16
2022-10-28T07:40:55.178Z,-11281.16
2022-10-28T07:44:01.354Z,-11283.13
2022-10-28T07:47:07.650Z,-11274.56
2022-10-28T07:50:15.502Z,-11284.56
2022-10-28T07:53:24.819Z,-11277.22
2022-10-28T07:56:34.076Z,-11301.72
2022-10-28T07:59:40.240Z,-11302.72
2022-10-28T08:02:46.350Z,-11312.41
2022-10-28T08:06:01.382Z,-11303.41
2022-10-28T08:09:07.372Z,-11310.88
2022-10-28T08:12:15.697Z,-11322.69
2022-10-28T08:15:23.880Z,-11319.75
2022-10-28T08:18:30.061Z,-11331.28
2022-10-28T08:21:37.894Z,-11339.75
2022-10-28T08:24:43.965Z,-11337.78
2022-10-28T08:27:50.134Z,-11349.75
2022-10-28T08:31:09.801Z,-11348.47
2022-10-28T08:34:15.891Z,-11347.78
2022-10-28T08:37:23.409Z,-11357.22
2022-10-28T08:40:35.657Z,-11350.16
2022-10-28T08:44:00.982Z,-11362.56
2022-10-28T08:47:17.087Z,-11363.69
2022-10-28T08:50:25.934Z,-11368.47
2022-10-28T08:53:40.638Z,-11384.81
2022-10-28T08:56:48.877Z,-11389.63
2022-10-28T08:59:56.054Z,-11384.81
2022-10-28T09:03:18.028Z,-11388.63
2022-10-28T09:06:24.251Z,-11405.97
2022-10-28T09:09:32.557Z,-11404.56
2022-10-28T09:12:44.639Z,-11396.66
2022-10-28T09:15:59.725Z,-11407.09
2022-10-28T09:19:15.925Z,-11415.97
2022-10-28T09:22:28.576Z,-11415.12
2022-10-28T09:25:48.930Z,-11420.91
2022-10-28T09:29:04.276Z,-11419.22
2022-10-28T09:32:23.997Z,-11415.97
2022-10-28T09:35:34.314Z,-11422.59
2022-10-28T09:38:41.357Z,-11428.25
2022-10-28T09:41:50.614Z,-11420.91
2022-10-28T09:45:01.200Z,-11441.91
2022-10-28T09:48:15.874Z,-11435.00
2022-10-28T09:51:30.092Z,-11446.00
2022-10-28T09:54:41.065Z,-11431.06
2022-10-28T09:57:48.692Z,-11454.19
2022-10-28T10:00:55.104Z,-11438.09
2022-10-28T10:04:02.125Z,-11447.97
2022-10-28T10:07:12.522Z,-11442.34
2022-10-28T10:10:24.674Z,-11454.75
2022-10-28T10:13:38.056Z,-11462.34
2022-10-28T10:16:48.882Z,-11477.88
2022-10-28T10:20:03.988Z,-11477.59
2022-10-28T10:23:24.138Z,-11474.91
2022-10-28T10:26:34.730Z,-11475.63
2022-10-28T10:29:46.734Z,-11467.72
2022-10-28T10:32:53.859Z,-11464.19
2022-10-28T10:36:04.070Z,-11465.31
2022-10-28T10:39:23.170Z,-11463.06
2022-10-28T10:42:29.174Z,-11474.34
2022-10-28T10:45:36.824Z,-11469.41
2022-10-28T10:48:43.773Z,-11467.84
2022-10-28T10:51:53.529Z,-11473.34
2022-10-28T10:55:08.103Z,-11476.31
2022-10-28T10:58:20.058Z,-11492.69
2022-10-28T11:01:30.348Z,-11486.59
2022-10-28T11:04:36.942Z,-11480.97
2022-10-28T11:07:49.665Z,-11492.41
2022-10-28T11:11:14.380Z,-11481.81
2022-10-28T11:14:25.617Z,-11469.41
2022-10-28T11:17:35.407Z,-11496.19
2022-10-28T11:20:51.712Z,-11502.41
2022-10-28T11:24:11.445Z,-11500.44
2022-10-28T11:27:28.751Z,-11497.47
2022-10-28T11:30:47.045Z,-11493.38
2022-10-28T11:34:14.595Z,-11474.47
2022-10-28T11:37:28.610Z,-11487.59
2022-10-28T11:40:41.861Z,-11485.75
2022-10-28T11:43:55.004Z,-11500.16
2022-10-28T11:47:22.810Z,-11494.66
2022-10-28T11:50:59.510Z,-11509.59
2022-10-28T11:54:45.111Z,-11508.19
2022-10-28T11:58:06.124Z,-11495.91
2022-10-28T12:01:26.275Z,-11524.13
2022-10-28T12:04:49.967Z,-11506.34
2022-10-28T12:08:09.879Z,-11492.81
2022-10-28T12:11:29.850Z,-11508.34
2022-10-28T12:14:48.573Z,-11494.22
2022-10-28T12:18:06.062Z,-11524.41
2022-10-28T12:21:18.177Z,-11523.84
2022-10-28T12:24:27.625Z,-11515.25
2022-10-28T12:27:39.205Z,-11511.72
2022-10-28T12:30:47.596Z,-11509.59
2022-10-28T12:33:56.681Z,-11521.72
2022-10-28T12:37:08.421Z,-11530.19
2022-10-28T12:40:20.817Z,-11543.31
2022-10-28T12:43:33.773Z,-11523.56
2022-10-28T12:50:07.681Z,-11505.50
2022-10-28T12:53:35.517Z,-11504.09
2022-10-28T12:56:50.258Z,-11535.41
2022-10-28T13:00:03.161Z,-11543.31
2022-10-28T13:03:14.100Z,-11552.63
2022-10-28T13:06:52.841Z,-11560.69
2022-10-28T13:10:12.254Z,-11561.66
2022-10-28T13:13:37.054Z,-11567.59
2022-10-28T13:17:02.319Z,-11542.75
2022-10-28T13:20:18.637Z,-11560.13
2022-10-28T13:23:31.187Z,-11563.22
2022-10-28T13:26:42.497Z,-11562.50
2022-10-28T13:29:53.660Z,-11555.88
2022-10-28T13:33:07.365Z,-11562.50
2022-10-28T13:36:19.821Z,-11546.72
2022-10-28T13:39:40.562Z,-11568.88
2022-10-28T13:42:48.849Z,-11546.44
2022-10-28T13:45:57.592Z,-11522.03
2022-10-28T13:49:23.799Z,-11515.25
2022-10-28T13:52:29.774Z,-11494.50
2022-10-28T13:55:45.199Z,-11492.69
2022-10-28T13:58:54.670Z,-11473.50
2022-10-28T14:02:35.043Z,-11468.84
2022-10-28T14:05:57.394Z,-11445.44
2022-10-28T14:09:04.526Z,-11443.59
2022-10-28T14:12:19.002Z,-11444.31
2022-10-28T14:15:31.373Z,-11445.16
2022-10-28T14:18:44.365Z,-11436.56
2022-10-28T14:22:00.718Z,-11443.75
2022-10-28T14:25:54.826Z,-11438.94
2022-10-28T14:29:01.371Z,-11434.72
2022-10-28T14:32:43.849Z,-11425.41
2022-10-28T14:36:01.130Z,-11425.13
2022-10-28T14:39:33.558Z,-11418.50
2022-10-28T14:43:00.410Z,-11412.16
2022-10-28T14:46:18.034Z,-11408.50
2022-10-28T14:49:28.054Z,-11407.38
2022-10-28T14:52:38.337Z,-11400.31
2022-10-28T14:55:48.680Z,-11394.81
2022-10-28T14:58:58.772Z,-11388.75
2022-10-28T15:02:15.641Z,-11382.28
2022-10-28T15:05:24.918Z,-11373.97
2022-10-28T15:08:32.090Z,-11367.50
2022-10-28T15:11:38.111Z,-11375.09
2022-10-28T15:14:49.264Z,-11378.47
2022-10-28T15:17:56.438Z,-11374.13
2022-10-28T15:21:09.479Z,-11370.16
2022-10-28T15:24:17.121Z,-11366.38
2022-10-28T15:27:23.685Z,-11367.06
2022-10-28T15:30:30.091Z,-11365.94
2022-10-28T15:33:40.698Z,-11354.09
2022-10-28T15:36:50.482Z,-11333.41
2022-10-28T15:40:20.956Z,-11326.22
2022-10-28T15:43:28.896Z,-11320.72
2022-10-28T15:46:35.772Z,-11311.00
2022-10-28T15:49:42.636Z,-11306.94
2022-10-28T15:52:52.516Z,-11303.00
2022-10-28T15:56:20.109Z,-11296.38
2022-10-28T15:59:27.054Z,-11288.63
2022-10-28T16:02:45.980Z,-11285.13
2022-10-28T16:05:53.350Z,-11284.84
2022-10-28T16:09:02.822Z,-11292.72
2022-10-28T16:12:16.720Z,-11280.47
2022-10-28T16:15:22.830Z,-11276.25
2022-10-28T16:18:31.017Z,-11276.09
2022-10-28T16:21:39.114Z,-11266.53
2022-10-28T16:24:45.631Z,-11263.72
2022-10-28T16:27:54.958Z,-11263.88
2022-10-28T16:31:03.010Z,-11262.59
2022-10-28T16:34:15.030Z,-11262.88
2022-10-28T16:37:24.490Z,-11259.50
2022-10-28T16:40:50.505Z,-11253.88
2022-10-28T16:43:58.743Z,-11230.22
2022-10-28T16:47:12.121Z,-11231.22
2022-10-28T16:50:18.377Z,-11232.47
2022-10-28T16:53:24.908Z,-11228.97
2022-10-28T16:56:31.277Z,-11233.88
2022-10-28T16:59:38.960Z,-11237.56
2022-10-28T17:02:46.970Z,-11239.66
2022-10-28T17:05:52.865Z,-11243.31
2022-10-28T17:09:03.576Z,-11241.47
2022-10-28T17:12:14.439Z,-11231.06
2022-10-28T17:15:21.849Z,-11213.34
2022-10-28T17:18:27.648Z,-11237.84
2022-10-28T17:21:33.781Z,-11222.63
2022-10-28T17:24:40.418Z,-11219.97
2022-10-28T17:27:48.556Z,-11215.88
2022-10-28T17:30:55.757Z,-11198.59
2022-10-28T17:34:02.084Z,-11199.00
2022-10-28T17:37:08.804Z,-11192.25
2022-10-28T17:40:15.395Z,-11186.78
2022-10-28T17:43:21.551Z,-11193.09
2022-10-28T17:46:29.265Z,-11185.38
2022-10-28T17:49:36.613Z,-11185.94
2022-10-28T17:52:43.016Z,-11186.63
2022-10-28T17:55:57.121Z,-11177.91
2022-10-28T17:59:03.190Z,-11173.97
2022-10-28T18:02:12.809Z,-11160.50
2022-10-28T18:05:19.399Z,-11162.03
2022-10-28T18:08:25.846Z,-11158.25
2022-10-28T18:11:34.121Z,-11165.84
2022-10-28T18:14:40.533Z,-11151.78
2022-10-28T18:17:51.652Z,-11154.03
2022-10-28T18:20:57.811Z,-11146.72
2022-10-28T18:24:07.080Z,-11141.81
2022-10-28T18:27:13.027Z,-11147.00
2022-10-28T18:30:19.325Z,-11148.13
2022-10-28T18:33:26.842Z,-11138.00
2022-10-28T18:36:35.765Z,-11133.22
2022-10-28T18:39:41.719Z,-11129.03
2022-10-28T18:42:48.045Z,-11123.69
2022-10-28T18:45:54.499Z,-11138.72
2022-10-28T18:49:01.990Z,-11136.31
2022-10-28T18:52:08.245Z,-11151.22
2022-10-28T18:55:14.264Z,-11130.13
2022-10-28T18:58:20.638Z,-11125.94
2022-10-28T19:01:28.298Z,-11133.22
2022-10-28T19:04:36.405Z,-11123.97
2022-10-28T19:07:42.675Z,-11121.56
2022-10-28T19:10:49.821Z,-11130.97
2022-10-28T19:13:56.226Z,-11120.03
2022-10-28T19:17:03.322Z,-11114.97
2022-10-28T19:20:12.134Z,-11128.47
2022-10-28T19:23:18.404Z,-11119.88
2022-10-28T19:26:24.867Z,-11115.25
2022-10-28T19:29:31.009Z,-11107.41
2022-10-28T19:32:38.937Z,-11100.22
2022-10-28T19:35:46.441Z,-11102.75
2022-10-28T19:38:53.958Z,-11115.81
2022-10-28T19:42:00.137Z,-11112.16
2022-10-28T19:45:07.502Z,-11107.13
2022-10-28T19:48:13.822Z,-11100.09
2022-10-28T19:51:23.097Z,-11113.56
2022-10-28T19:54:29.470Z,-11119.47
2022-10-28T19:57:35.728Z,-11114.13
2022-10-28T20:00:41.783Z,-11117.22
2022-10-28T20:03:49.344Z,-11121.00
2022-10-28T20:06:57.741Z,-11116.94
2022-10-28T20:10:03.673Z,-11106.00
2022-10-28T20:13:10.304Z,-11103.59
2022-10-28T20:16:17.943Z,-11114.69
2022-10-28T20:19:24.020Z,-11103.75
2022-10-28T20:22:31.718Z,-11096.28
2022-10-28T20:25:37.740Z,-11085.34
2022-10-28T20:28:44.285Z,-11081.41
2022-10-28T20:31:50.357Z,-11098.53
2022-10-28T20:34:57.193Z,-11086.59
2022-10-28T20:38:04.753Z,-11080.28
2022-10-28T20:41:11.985Z,-11090.13
2022-10-28T20:44:18.621Z,-11079.88
2022-10-28T20:47:25.130Z,-11075.09
2022-10-28T20:50:31.282Z,-11071.72
2022-10-28T20:53:38.988Z,-11071.59
2022-10-28T20:56:45.083Z,-11070.47
2022-10-28T20:59:51.782Z,-11088.72
2022-10-28T21:02:58.365Z,-11084.91
2022-10-28T21:06:05.409Z,-11080.44
2022-10-28T21:09:12.834Z,-11078.03
2022-10-28T21:12:18.727Z,-11073.41
2022-10-28T21:15:24.992Z,-11061.63
2022-10-28T21:18:31.377Z,-11067.66
2022-10-28T21:21:37.629Z,-11072.28
2022-10-28T21:24:45.257Z,-11083.50
2022-10-28T21:27:51.332Z,-11081.00
2022-10-28T21:31:01.617Z,-11095.16
2022-10-28T21:34:08.552Z,-11099.81
2022-10-28T21:37:14.837Z,-11101.06
2022-10-28T21:40:22.618Z,-11085.34
2022-10-28T21:43:29.880Z,-11046.75
2022-10-28T21:46:36.006Z,-11053.75
2022-10-28T21:49:42.550Z,-11045.78
2022-10-28T21:52:49.064Z,-11048.28
2022-10-28T21:56:03.988Z,-11062.47
2022-10-28T21:59:10.433Z,-11073.69
2022-10-28T22:02:17.089Z,-11072.00
2022-10-28T22:05:23.289Z,-11061.75
2022-10-28T22:08:29.919Z,-11065.28
2022-10-28T22:11:37.487Z,-11075.66
2022-10-28T22:14:43.974Z,-11086.75
2022-10-28T22:17:50.538Z,-11054.31
2022-10-28T22:20:56.829Z,-11070.19
2022-10-28T22:24:02.882Z,-11073.97
2022-10-28T22:27:10.774Z,-11081.00
2022-10-28T22:30:16.944Z,-11049.56
2022-10-28T22:33:23.502Z,-11031.03
2022-10-28T22:36:31.102Z,-11042.97
2022-10-28T22:39:37.120Z,-11056.00
2022-10-28T22:42:44.941Z,-11063.88
2022-10-28T22:45:50.961Z,-11074.97
2022-10-28T22:48:57.830Z,-11076.22
2022-10-28T22:52:04.378Z,-11062.31
2022-10-28T22:55:11.489Z,-11066.38
2022-10-28T22:58:19.131Z,-11059.38
2022-10-28T23:01:26.660Z,-11065.13
2022-10-28T23:04:33.018Z,-11052.91
2022-10-28T23:07:39.247Z,-11029.34
2022-10-28T23:10:45.151Z,-11022.19
2022-10-28T23:13:53.918Z,-11044.94
2022-10-28T23:17:00.062Z,-11061.75
2022-10-28T23:20:07.121Z,-11068.22
2022-10-28T23:23:13.187Z,-11066.38
2022-10-28T23:26:19.543Z,-11054.31
2022-10-28T23:29:27.429Z,-11051.94
2022-10-28T23:32:33.366Z,-11057.13
2022-10-28T23:35:39.222Z,-11052.06
2022-10-28T23:38:45.972Z,-11035.81
2022-10-28T23:41:52.017Z,-11031.88
2022-10-28T23:44:59.661Z,-11050.13
2022-10-28T23:48:05.862Z,-11037.50
2022-10-28T23:51:12.000Z,-11009.00
2022-10-28T23:54:18.253Z,-11021.06
2022-10-28T23:57:25.092Z,-11015.88
